Time;durP1;ratioP1;P1;durP2;ratioP2;P2;SDS_P1;SDS_P2;PMS_P1;PMS_P2;Temp;Humidity;BMP_temperature;BMP_pressure;BME280_temperature;BME280_humidity;BME280_pressure;Samples;Min_cycle;Max_cycle;Signal;HPM_P1;HPM_P2
2024/04/25 00:01:43;;;;;;;21.20;19.20;;;;;;;7.36;65.73;99365.30;111277;1252;23618;-64
2024/04/25 00:04:14;;;;;;;20.90;18.90;;;;;;;7.35;65.83;99368.16;111298;1252;21950;-62
2024/04/25 00:06:43;;;;;;;21.00;19.00;;;;;;;7.33;65.82;99367.29;111261;1252;21957;-64
2024/04/25 00:09:12;;;;;;;22.90;20.50;;;;;;;7.31;65.86;99364.94;111358;1252;21973;-65
2024/04/25 00:11:41;;;;;;;22.90;20.60;;;;;;;7.29;65.88;99362.99;111271;1253;22060;-70
2024/04/25 00:14:10;;;;;;;24.70;22.10;;;;;;;7.28;65.97;99359.05;111305;1252;21974;-70
2024/04/25 00:16:39;;;;;;;25.70;23.10;;;;;;;7.27;66.22;99355.77;111304;1252;21968;-70
2024/04/25 00:19:08;;;;;;;26.90;24.10;;;;;;;7.25;65.97;99355.23;111321;1252;21956;-70
2024/04/25 00:21:36;;;;;;;33.20;28.50;;;;;;;7.21;65.70;99351.70;111260;1253;21957;-69
2024/04/25 00:24:05;;;;;;;32.10;28.60;;;;;;;7.15;65.73;99348.77;111345;1252;21959;-68
2024/04/25 00:26:34;;;;;;;28.60;25.80;;;;;;;7.13;65.64;99349.80;111317;1252;21993;-70
2024/04/25 00:29:03;;;;;;;29.20;26.10;;;;;;;7.10;65.22;99350.02;111308;1252;21950;-69
2024/04/25 00:31:33;;;;;;;30.60;27.50;;;;;;;7.09;64.98;99354.16;111165;1252;21957;-69
2024/04/25 00:34:02;;;;;;;30.30;27.30;;;;;;;7.06;65.28;99355.91;111346;1252;23640;-68
2024/04/25 00:36:31;;;;;;;31.20;28.30;;;;;;;6.99;65.17;99350.97;111335;1252;23717;-68
2024/04/25 00:39:00;;;;;;;30.70;27.50;;;;;;;6.97;65.15;99352.36;111245;1253;21961;-69
2024/04/25 00:41:30;;;;;;;26.90;24.20;;;;;;;6.98;64.86;99352.94;111300;1252;21955;-69
2024/04/25 00:43:59;;;;;;;29.40;26.20;;;;;;;7.01;64.99;99354.52;111318;1252;22018;-69
2024/04/25 00:46:28;;;;;;;28.10;25.30;;;;;;;7.02;65.54;99357.62;111308;1252;22943;-68
2024/04/25 00:48:59;;;;;;;26.10;23.50;;;;;;;7.04;65.52;99357.99;111300;1253;21955;-69
2024/04/25 00:51:28;;;;;;;25.00;22.70;;;;;;;7.07;65.49;99357.46;111267;1253;23672;-68
2024/04/25 00:53:57;;;;;;;22.80;20.50;;;;;;;7.09;65.68;99359.05;111085;1252;169076;-68
2024/04/25 00:56:26;;;;;;;22.80;20.60;;;;;;;7.10;65.47;99359.84;111284;1252;24302;-67
2024/04/25 00:58:58;;;;;;;21.80;19.70;;;;;;;7.11;65.46;99359.23;110992;1253;21955;-68
2024/04/25 01:01:27;;;;;;;19.10;16.80;;;;;;;7.09;65.22;99356.42;111159;1252;22726;-68
2024/04/25 01:03:59;;;;;;;16.70;15.10;;;;;;;7.07;65.41;99357.27;111347;1252;23458;-69
2024/04/25 01:06:31;;;;;;;17.70;15.90;;;;;;;7.08;65.20;99354.89;111299;1253;22165;-68
2024/04/25 01:09:00;;;;;;;15.90;14.40;;;;;;;7.11;65.42;99353.30;111286;1252;22003;-69
2024/04/25 01:11:32;;;;;;;15.80;14.20;;;;;;;7.11;65.11;99350.34;111295;1253;23058;-69
2024/04/25 01:14:02;;;;;;;18.40;16.60;;;;;;;7.09;64.96;99352.56;111276;1252;22932;-68
2024/04/25 01:16:31;;;;;;;16.20;14.50;;;;;;;7.10;64.82;99351.46;111237;1247;21953;-68
2024/04/25 01:19:00;;;;;;;18.90;16.10;;;;;;;7.11;64.80;99351.50;111315;1252;22045;-68
2024/04/25 01:21:29;;;;;;;18.40;16.50;;;;;;;7.10;65.22;99349.20;111310;1252;21989;-69
2024/04/25 01:24:01;;;;;;;18.20;16.50;;;;;;;7.08;65.45;99353.32;111222;1248;23064;-68
2024/04/25 01:26:30;;;;;;;;;;;;;;;7.06;65.57;99351.37;111376;1252;21933;-69
2024/04/25 01:29:01;;;;;;;20.90;18.70;;;;;;;6.95;65.64;99348.08;111268;1253;21946;-69
2024/04/25 01:31:31;;;;;;;23.40;21.10;;;;;;;6.95;65.22;99347.77;111283;1253;22047;-69
2024/04/25 01:34:00;;;;;;;24.60;22.20;;;;;;;6.95;65.31;99349.65;111150;1253;23614;-68
2024/04/25 01:36:29;;;;;;;28.00;25.10;;;;;;;6.97;65.36;99348.83;111295;1253;23078;-68
2024/04/25 01:38:58;;;;;;;33.60;30.20;;;;;;;6.98;65.41;99348.39;111302;1252;22040;-67
2024/04/25 01:41:27;;;;;;;38.40;34.80;;;;;;;6.98;65.39;99345.98;111287;1252;21978;-68
2024/04/25 01:43:56;;;;;;;43.40;39.30;;;;;;;7.00;65.40;99348.98;111320;1252;22749;-68
2024/04/25 01:46:25;;;;;;;46.90;42.70;;;;;;;7.01;65.31;99346.63;111362;1252;21955;-69
2024/04/25 01:48:54;;;;;;;49.30;44.60;;;;;;;6.99;65.49;99348.02;111271;1252;21951;-69
2024/04/25 01:51:23;;;;;;;50.20;45.80;;;;;;;6.98;65.56;99343.52;111286;1252;23686;-68
2024/04/25 01:53:52;;;;;;;52.30;47.70;;;;;;;6.99;65.79;99341.19;111307;1252;21969;-67
2024/04/25 01:56:21;;;;;;;52.00;47.40;;;;;;;6.99;65.64;99339.06;111256;1252;21963;-69
2024/04/25 01:58:53;;;;;;;51.30;46.70;;;;;;;7.04;65.60;99336.98;111207;1253;22145;-69
2024/04/25 02:01:22;;;;;;;51.00;46.30;;;;;;;7.04;65.59;99336.79;111288;1252;22746;-72
2024/04/25 02:03:50;;;;;;;50.60;45.70;;;;;;;7.06;65.72;99337.71;111294;1253;21955;-70
2024/04/25 02:06:19;;;;;;;51.20;46.40;;;;;;;7.08;65.94;99340.70;111303;1252;21963;-69
2024/04/25 02:08:48;;;;;;;52.60;47.60;;;;;;;7.08;65.92;99340.68;111222;1252;21962;-70
2024/04/25 02:11:17;;;;;;;50.70;46.10;;;;;;;7.08;66.02;99338.13;111301;1252;23598;-68
2024/04/25 02:13:46;;;;;;;51.30;46.70;;;;;;;7.05;66.02;99337.61;111321;1252;21950;-68
2024/04/25 02:16:15;;;;;;;50.00;45.60;;;;;;;7.04;65.83;99337.88;111298;1253;23007;-68
2024/04/25 02:18:44;;;;;;;49.20;44.70;;;;;;;7.03;66.22;99338.11;111309;1252;21955;-69
2024/04/25 02:26:48;;;;;;;43.70;39.60;;;;;;;7.01;66.72;99339.63;111322;1252;21955;-69
2024/04/25 02:29:17;;;;;;;40.90;36.90;;;;;;;6.99;66.37;99336.41;111277;1253;21997;-69
2024/04/25 02:31:46;;;;;;;37.30;33.90;;;;;;;6.97;66.41;99336.44;111348;1252;22713;-69
2024/04/25 02:34:15;;;;;;;37.10;33.70;;;;;;;6.97;66.51;99340.82;111263;1252;21954;-69
2024/04/25 02:36:44;;;;;;;38.00;34.30;;;;;;;6.97;66.70;99340.27;111304;1252;21954;-69
2024/04/25 02:39:13;;;;;;;35.10;31.80;;;;;;;6.97;66.45;99340.29;111292;1252;21950;-68
2024/04/25 02:41:42;;;;;;;36.80;33.40;;;;;;;6.95;66.28;99344.24;111279;1252;21945;-69
2024/04/25 02:44:11;;;;;;;38.00;34.40;;;;;;;6.94;66.36;99345.04;111277;1252;21958;-69
2024/04/25 02:46:40;;;;;;;41.50;37.80;;;;;;;6.91;66.59;99347.31;111264;1252;21959;-69
2024/04/25 02:49:08;;;;;;;42.50;38.50;;;;;;;6.86;66.52;99346.66;111276;1252;23477;-69
2024/04/25 02:51:37;;;;;;;44.00;40.10;;;;;;;6.81;66.57;99343.02;111320;1252;21995;-69
2024/04/25 02:54:07;;;;;;;41.20;37.30;;;;;;;6.77;66.34;99343.80;111381;1252;21953;-69
2024/04/25 02:56:35;;;;;;;38.80;35.20;;;;;;;6.72;66.57;99345.19;111387;1252;23582;-69
2024/04/25 02:59:04;;;;;;;37.40;34.00;;;;;;;6.65;66.42;99346.20;111228;1252;21955;-69
2024/04/25 03:01:33;;;;;;;36.80;33.40;;;;;;;6.61;66.48;99341.26;111266;1252;21954;-69
2024/04/25 03:04:02;;;;;;;36.80;33.30;;;;;;;6.52;66.55;99344.69;111278;1252;21996;-70
2024/04/25 03:06:31;;;;;;;34.50;31.40;;;;;;;6.45;66.64;99343.91;111259;1252;21948;-70
2024/04/25 03:09:00;;;;;;;34.90;31.70;;;;;;;6.39;66.91;99344.54;111137;1252;21952;-70
2024/04/25 03:11:29;;;;;;;35.30;31.90;;;;;;;6.31;66.89;99341.54;111275;1252;21948;-69
2024/04/25 03:13:59;;;;;;;35.70;32.50;;;;;;;6.23;67.03;99340.02;111429;1252;22107;-69
2024/04/25 03:16:27;;;;;;;34.80;31.60;;;;;;;6.14;66.98;99343.77;111323;1252;24306;-69
2024/04/25 03:18:56;;;;;;;37.20;33.80;;;;;;;6.05;67.11;99349.46;111344;1252;21971;-69
2024/04/25 03:21:25;;;;;;;34.50;31.50;;;;;;;5.95;67.29;99347.15;111252;1252;21965;-68
2024/04/25 03:23:54;;;;;;;38.60;34.90;;;;;;;5.82;67.56;99350.94;111244;1252;21945;-68
2024/04/25 03:26:23;;;;;;;38.00;34.30;;;;;;;5.71;67.88;99347.99;111338;1252;22090;-69
2024/04/25 03:28:52;;;;;;;51.60;46.30;;;;;;;5.65;67.90;99347.71;111241;1252;22014;-69
2024/04/25 03:31:21;;;;;;;39.90;35.80;;;;;;;5.62;68.19;99348.64;111365;1252;22422;-69
2024/04/25 03:33:50;;;;;;;42.80;38.50;;;;;;;5.59;68.48;99351.50;111361;1252;21966;-69
2024/04/25 03:36:19;;;;;;;39.10;35.60;;;;;;;5.53;68.52;99354.95;111265;1252;21962;-70
2024/04/25 03:38:48;;;;;;;37.70;34.10;;;;;;;5.47;68.47;99354.50;111261;1252;21957;-69
2024/04/25 03:41:21;;;;;;;39.30;35.60;;;;;;;5.38;68.85;99356.98;111273;1252;21955;-70
2024/04/25 03:43:50;;;;;;;38.00;34.50;;;;;;;5.31;68.95;99354.65;111338;1252;21948;-71
2024/04/25 03:46:24;;;;;;;43.50;39.20;;;;;;;5.26;69.20;99356.36;111213;1252;21955;-69
2024/04/25 03:48:55;;;;;;;41.40;37.40;;;;;;;5.24;69.68;99354.77;111274;1252;21963;-68
2024/04/25 03:51:26;;;;;;;45.40;40.40;;;;;;;5.22;69.65;99354.88;111039;1252;21953;-68
2024/04/25 03:53:57;;;;;;;45.70;39.40;;;;;;;5.20;69.60;99358.30;111237;1244;21955;-68
2024/04/25 03:56:28;;;;;;;41.30;37.30;;;;;;;5.18;69.66;99363.70;111386;1252;23778;-67
2024/04/25 03:58:57;;;;;;;42.30;37.40;;;;;;;5.16;69.57;99367.30;111034;1253;21956;-68
2024/04/25 04:01:28;;;;;;;42.10;38.10;;;;;;;5.14;69.71;99367.77;111082;1253;23052;-68
2024/04/25 04:03:57;;;;;;;43.40;39.10;;;;;;;5.12;69.95;99369.83;111080;1253;21963;-69
2024/04/25 04:06:30;;;;;;;68.40;48.30;;;;;;;5.10;70.11;99374.33;111024;1253;22415;-69
2024/04/25 04:08:59;;;;;;;43.00;38.70;;;;;;;5.04;70.19;99377.82;111061;1248;21961;-69
2024/04/25 04:11:28;;;;;;;43.50;39.10;;;;;;;5.00;70.34;99380.52;111088;1253;22927;-70
2024/04/25 04:13:57;;;;;;;42.70;38.50;;;;;;;5.00;70.65;99381.04;111021;1253;24148;-68
2024/04/25 04:16:26;;;;;;;61.70;55.10;;;;;;;5.04;70.78;99384.84;111121;1253;21959;-68
2024/04/25 04:18:55;;;;;;;448.20;283.70;;;;;;;5.07;70.66;99390.91;111015;1253;22045;-70
2024/04/25 04:21:24;;;;;;;314.30;192.70;;;;;;;5.10;70.72;99396.30;111008;1253;22820;-69
2024/04/25 04:23:53;;;;;;;325.50;195.00;;;;;;;5.13;70.78;99393.52;111031;1253;21940;-71
2024/04/25 04:26:22;;;;;;;302.30;186.10;;;;;;;5.17;70.82;99393.75;111029;1253;21947;-68
2024/04/25 04:28:51;;;;;;;168.60;117.50;;;;;;;5.21;70.80;99397.52;111152;1253;21962;-68
2024/04/25 04:31:20;;;;;;;225.60;138.00;;;;;;;5.26;70.94;99397.23;111063;1253;21958;-71
2024/04/25 04:33:48;;;;;;;200.50;123.50;;;;;;;5.31;70.96;99403.14;111126;1253;21957;-70
2024/04/25 04:36:18;;;;;;;67.70;55.00;;;;;;;5.39;70.71;99403.56;111162;1253;22427;-69
2024/04/25 04:38:46;;;;;;;41.90;37.80;;;;;;;5.46;70.36;99404.48;111075;1253;21955;-69
2024/04/25 04:41:15;;;;;;;43.80;39.60;;;;;;;5.49;70.10;99404.83;111162;1253;22049;-71
2024/04/25 04:43:44;;;;;;;45.70;40.90;;;;;;;5.57;70.19;99406.21;111096;1253;22421;-69
2024/04/25 04:46:13;;;;;;;48.60;43.30;;;;;;;5.70;69.98;99403.77;111106;1253;21954;-70
2024/04/25 04:48:45;;;;;;;48.90;43.70;;;;;;;5.82;69.42;99401.95;111053;1253;22042;-71
2024/04/25 04:51:18;;;;;;;;;;;;;;;5.91;69.06;99405.73;111106;1253;23659;-70
2024/04/25 04:53:48;;;;;;;;;;;;;;;5.91;68.95;99408.87;111044;1253;21927;-70
2024/04/25 04:56:18;;;;;;;41.00;36.90;;;;;;;5.91;68.93;99413.05;111087;1252;21962;-69
2024/04/25 04:58:47;;;;;;;40.30;36.20;;;;;;;5.99;68.68;99414.31;110993;1253;21970;-70
2024/04/25 05:01:16;;;;;;;41.70;37.60;;;;;;;6.12;68.52;99412.43;111107;1253;21942;-70
2024/04/25 05:03:45;;;;;;;43.70;39.10;;;;;;;6.24;68.25;99408.63;111036;1252;21952;-69
2024/04/25 05:06:14;;;;;;;45.70;40.90;;;;;;;6.33;68.11;99400.72;111083;1253;21950;-70
2024/04/25 05:08:43;;;;;;;44.00;39.80;;;;;;;6.41;67.89;99402.28;111041;1253;21940;-69
2024/04/25 05:11:12;;;;;;;50.00;44.80;;;;;;;6.53;67.74;99403.52;111074;1253;22136;-69
2024/04/25 05:13:41;;;;;;;45.10;40.90;;;;;;;6.68;67.34;99408.06;111094;1253;23621;-69
2024/04/25 05:16:10;;;;;;;42.10;37.70;;;;;;;6.87;67.03;99413.27;111136;1253;23744;-72
2024/04/25 05:18:39;;;;;;;39.50;35.60;;;;;;;7.07;66.72;99416.23;111078;1245;23022;-68
2024/04/25 05:21:08;;;;;;;33.90;30.60;;;;;;;7.31;66.66;99419.76;111186;1253;21974;-69
2024/04/25 05:23:37;;;;;;;33.40;29.80;;;;;;;7.55;65.40;99424.56;111084;1253;21950;-69
2024/04/25 05:26:11;;;;;;;35.00;30.70;;;;;;;7.66;64.82;99420.37;111306;1253;25075;-72
2024/04/25 05:28:40;;;;;;;34.50;31.10;;;;;;;7.72;64.20;99421.38;111052;1253;23611;-73
2024/04/25 05:31:09;;;;;;;31.70;28.50;;;;;;;7.72;64.02;99422.21;111023;1253;22008;-72
2024/04/25 05:33:38;;;;;;;28.20;25.60;;;;;;;7.73;63.87;99426.04;111152;1253;21971;-72
2024/04/25 05:36:08;;;;;;;29.00;26.10;;;;;;;7.75;63.58;99426.73;111105;1253;21967;-72
2024/04/25 05:38:36;;;;;;;27.30;24.70;;;;;;;7.77;63.03;99425.35;111049;1252;21952;-73
2024/04/25 05:41:05;;;;;;;23.90;21.70;;;;;;;7.80;62.93;99420.40;111004;1253;22009;-71
2024/04/25 05:43:34;;;;;;;26.20;23.80;;;;;;;7.81;62.65;99420.70;111000;1253;21965;-71
2024/04/25 05:46:04;;;;;;;24.20;22.00;;;;;;;7.77;62.55;99421.67;110990;1251;23035;-71
2024/04/25 05:48:33;;;;;;;26.50;23.90;;;;;;;7.71;62.51;99424.05;111089;1253;23675;-70
2024/04/25 05:51:03;;;;;;;27.60;23.50;;;;;;;7.75;62.82;99425.34;111113;1253;21963;-70
2024/04/25 05:53:31;;;;;;;28.70;25.80;;;;;;;7.94;62.85;99427.29;111108;1253;23143;-70
2024/04/25 05:56:00;;;;;;;24.50;22.20;;;;;;;8.21;61.97;99426.69;111089;1253;21949;-71
2024/04/25 05:58:29;;;;;;;24.70;22.30;;;;;;;8.50;60.98;99424.66;111034;1253;21961;-71
2024/04/25 06:00:58;;;;;;;24.50;22.30;;;;;;;8.75;59.71;99419.41;111326;1252;21954;-70
2024/04/25 06:03:27;;;;;;;29.50;26.60;;;;;;;9.05;59.56;99416.37;111301;1252;21953;-71
2024/04/25 06:05:56;;;;;;;25.80;23.20;;;;;;;9.52;58.89;99417.90;111241;1252;22047;-71
2024/04/25 06:08:25;;;;;;;23.20;20.90;;;;;;;10.02;58.13;99415.27;111231;1252;21960;-70
2024/04/25 06:10:54;;;;;;;24.30;22.10;;;;;;;10.34;56.53;99412.91;111270;1252;21959;-71
2024/04/25 06:13:23;;;;;;;24.10;21.70;;;;;;;10.46;55.32;99416.65;111303;1252;21953;-72
2024/04/25 06:15:52;;;;;;;30.80;27.70;;;;;;;10.40;54.81;99419.27;111285;1252;23569;-71
2024/04/25 06:18:21;;;;;;;61.60;49.70;;;;;;;10.36;55.53;99416.44;111022;1252;21968;-71
2024/04/25 06:20:50;;;;;;;45.80;40.80;;;;;;;10.59;54.79;99417.33;111192;1252;24935;-70
2024/04/25 06:23:19;;;;;;;25.70;23.20;;;;;;;10.88;53.98;99418.56;111253;1252;21966;-71
2024/04/25 06:25:48;;;;;;;38.70;34.30;;;;;;;11.11;53.06;99423.27;111281;1252;21953;-71
2024/04/25 06:28:17;;;;;;;29.90;26.90;;;;;;;11.25;52.91;99424.28;111574;1252;21950;-72
2024/04/25 06:30:46;;;;;;;32.00;28.30;;;;;;;11.25;52.58;99431.02;111492;1252;23041;-72
2024/04/25 06:33:14;;;;;;;38.30;34.20;;;;;;;11.21;52.32;99427.85;111529;1252;23057;-71
2024/04/25 06:35:43;;;;;;;32.10;29.10;;;;;;;11.20;52.11;99427.06;111534;1252;21958;-70
2024/04/25 06:38:14;;;;;;;33.80;30.20;;;;;;;11.26;52.56;99427.22;111193;1252;21948;-71
2024/04/25 06:40:44;;;;;;;36.20;32.60;;;;;;;11.54;52.50;99429.30;111309;1252;21961;-70
2024/04/25 06:43:13;;;;;;;36.30;32.70;;;;;;;11.88;51.65;99430.87;111300;1252;23675;-71
2024/04/25 06:45:43;;;;;;;29.80;27.10;;;;;;;12.28;51.38;99432.02;111314;1252;23572;-72
2024/04/25 06:48:12;;;;;;;22.50;20.50;;;;;;;12.63;49.50;99436.41;111281;1252;21946;-72
2024/04/25 06:50:44;;;;;;;25.70;23.30;;;;;;;12.75;48.53;99438.41;111203;1244;21961;-74
2024/04/25 06:53:13;;;;;;;22.70;20.40;;;;;;;12.82;48.25;99439.34;111141;1252;23150;-72
2024/04/25 06:55:43;;;;;;;27.50;25.00;;;;;;;12.95;48.16;99435.98;110964;1241;21951;-73
2024/04/25 06:58:12;;;;;;;23.00;20.80;;;;;;;13.27;48.08;99440.42;111257;1252;21954;-71
2024/04/25 07:00:41;;;;;;;21.70;19.70;;;;;;;13.59;47.16;99443.52;111297;1252;21951;-72
2024/04/25 07:03:12;;;;;;;25.20;21.60;;;;;;;13.89;46.32;99443.93;111285;1252;22419;-71
2024/04/25 07:05:41;;;;;;;20.00;18.10;;;;;;;14.15;45.75;99440.97;110979;1252;22721;-71
2024/04/25 07:08:10;;;;;;;20.80;18.70;;;;;;;14.53;46.12;99442.16;111283;1252;21959;-71
2024/04/25 07:10:40;;;;;;;23.70;19.30;;;;;;;14.93;44.72;99446.05;111334;1252;21963;-70
2024/04/25 07:13:09;;;;;;;20.50;18.70;;;;;;;15.35;44.07;99451.67;111270;1248;22056;-71
2024/04/25 07:15:38;;;;;;;20.60;18.70;;;;;;;15.46;43.29;99451.19;111282;1252;21966;-70
2024/04/25 07:18:07;;;;;;;21.60;19.50;;;;;;;15.22;43.23;99445.59;111195;1252;23071;-72
2024/04/25 07:20:36;;;;;;;22.50;20.50;;;;;;;14.92;43.74;99442.09;111294;1252;21958;-73
2024/04/25 07:23:05;;;;;;;20.80;18.50;;;;;;;14.38;44.10;99445.42;111354;1252;21958;-71
2024/04/25 07:25:34;;;;;;;20.20;18.20;;;;;;;13.75;44.99;99449.53;111291;1252;21963;-71
2024/04/25 07:28:04;;;;;;;22.00;19.80;;;;;;;13.44;46.47;99450.21;111225;1252;21950;-70
2024/04/25 07:30:32;;;;;;;20.20;18.30;;;;;;;13.56;47.20;99449.27;111366;1252;22013;-71
2024/04/25 07:33:01;;;;;;;19.50;17.60;;;;;;;13.60;46.06;99448.86;111245;1252;21944;-70
2024/04/25 07:35:30;;;;;;;22.70;20.40;;;;;;;13.39;45.38;99449.34;111306;1252;23719;-70
2024/04/25 07:37:59;;;;;;;18.40;16.40;;;;;;;13.21;46.17;99450.70;111267;1252;22018;-72
2024/04/25 07:40:28;;;;;;;18.20;16.40;;;;;;;13.08;46.22;99453.70;111273;1252;21955;-70
2024/04/25 07:42:57;;;;;;;21.70;19.50;;;;;;;12.91;46.58;99454.44;111411;1252;21953;-72
2024/04/25 07:45:28;;;;;;;21.40;19.40;;;;;;;12.91;47.58;99455.11;111317;1252;21959;-72
2024/04/25 07:47:57;;;;;;;23.20;20.80;;;;;;;12.88;47.14;99453.11;111284;1252;21953;-72
2024/04/25 07:50:26;;;;;;;24.00;21.00;;;;;;;12.81;47.73;99452.33;111069;1252;21965;-71
2024/04/25 07:52:55;;;;;;;25.20;22.70;;;;;;;13.01;47.70;99448.67;111325;1252;24196;-71
2024/04/25 07:55:24;;;;;;;20.30;17.90;;;;;;;13.21;46.63;99450.73;111266;1252;21959;-72
2024/04/25 07:57:52;;;;;;;20.70;17.60;;;;;;;13.23;45.98;99448.60;111267;1252;23787;-71
2024/04/25 08:00:21;;;;;;;31.00;21.30;;;;;;;13.35;45.96;99452.34;111277;1252;21940;-73
2024/04/25 08:02:50;;;;;;;15.90;13.30;;;;;;;13.57;45.10;99455.00;111587;1252;21949;-72
2024/04/25 08:05:20;;;;;;;15.70;14.10;;;;;;;13.83;44.26;99457.83;111331;1252;21950;-72
2024/04/25 08:07:49;;;;;;;19.20;16.40;;;;;;;14.24;43.66;99455.64;111297;1252;21960;-72
2024/04/25 08:10:18;;;;;;;15.50;14.00;;;;;;;14.56;43.21;99453.23;111323;1252;23601;-72
2024/04/25 08:12:47;;;;;;;14.40;13.00;;;;;;;15.15;43.12;99450.38;111262;1252;21963;-72
2024/04/25 08:15:16;;;;;;;14.00;12.50;;;;;;;15.76;40.40;99453.43;111314;1252;21976;-73
2024/04/25 08:17:48;;;;;;;13.90;12.40;;;;;;;16.15;39.32;99457.73;111247;1252;21995;-72
2024/04/25 08:20:17;;;;;;;49.70;39.40;;;;;;;16.41;38.10;99455.95;111447;1252;23579;-71
2024/04/25 08:22:47;;;;;;;24.00;21.90;;;;;;;16.61;37.74;99452.05;111336;1252;22028;-72
2024/04/25 08:25:16;;;;;;;18.60;16.80;;;;;;;16.96;37.71;99448.20;111230;1252;21951;-71
2024/04/25 08:27:45;;;;;;;14.80;13.40;;;;;;;17.24;37.40;99443.82;111234;1252;21953;-74
2024/04/25 08:30:14;;;;;;;23.20;17.40;;;;;;;17.69;36.26;99446.20;111232;1252;21970;-73
2024/04/25 08:32:43;;;;;;;14.40;13.00;;;;;;;18.00;35.64;99446.56;111267;1252;22469;-76
2024/04/25 08:35:12;;;;;;;15.40;13.90;;;;;;;17.70;34.80;99446.65;111190;1252;21961;-74
2024/04/25 08:37:41;;;;;;;14.70;13.40;;;;;;;17.37;35.56;99446.12;111352;1252;22819;-72
2024/04/25 08:40:11;;;;;;;15.50;14.10;;;;;;;17.11;36.79;99444.96;111065;1252;21942;-72
2024/04/25 08:42:44;;;;;;;16.10;14.50;;;;;;;16.79;36.59;99446.47;111302;1252;21955;-72
2024/04/25 08:45:14;;;;;;;16.40;15.00;;;;;;;16.43;37.03;99444.42;111072;1244;21959;-71
2024/04/25 08:47:43;;;;;;;19.60;17.80;;;;;;;16.05;37.56;99442.67;111330;1252;23659;-72
2024/04/25 08:50:16;;;;;;;19.20;16.80;;;;;;;15.63;37.89;99441.47;111310;1250;23009;-72
2024/04/25 08:52:47;;;;;;;18.90;17.30;;;;;;;15.10;38.51;99440.95;111118;1252;21950;-72
2024/04/25 08:55:17;;;;;;;24.20;19.90;;;;;;;14.76;39.39;99442.55;111262;1252;21953;-71
2024/04/25 08:57:47;;;;;;;21.20;19.10;;;;;;;14.52;39.87;99442.47;110997;1252;21948;-72
2024/04/25 09:00:16;;;;;;;22.30;20.40;;;;;;;14.39;40.24;99442.16;111343;1252;22713;-71
2024/04/25 09:02:49;;;;;;;17.70;16.10;;;;;;;14.30;40.59;99442.01;111288;1252;22742;-71
2024/04/25 09:05:22;;;;;;;21.50;19.30;;;;;;;14.37;40.48;99443.44;111366;1252;21949;-71
2024/04/25 09:07:52;;;;;;;24.50;22.00;;;;;;;14.39;40.51;99442.16;111258;1252;23103;-71
2024/04/25 09:10:21;;;;;;;26.40;23.80;;;;;;;14.27;40.69;99447.08;111237;1252;23710;-72
2024/04/25 09:12:51;;;;;;;22.30;20.40;;;;;;;14.12;40.70;99448.10;111102;1252;21951;-73
2024/04/25 09:15:20;;;;;;;23.50;21.30;;;;;;;13.96;40.71;99447.55;111582;1252;21959;-72
2024/04/25 09:17:58;;;;;;;20.30;18.50;;;;;;;13.74;40.73;99446.27;111354;1252;21961;-72
2024/04/25 09:20:30;;;;;;;20.10;18.10;;;;;;;13.45;40.72;99446.44;111325;1252;21964;-71
2024/04/25 09:22:59;;;;;;;20.10;17.00;;;;;;;13.22;41.20;99447.25;111309;1252;23253;-72
2024/04/25 09:25:33;;;;;;;18.40;16.40;;;;;;;13.04;41.68;99449.08;111307;1252;23378;-72
2024/04/25 09:28:03;;;;;;;12.40;10.20;;;;;;;12.88;41.55;99449.39;111287;1252;21953;-72
2024/04/25 09:30:32;;;;;;;9.60;7.10;;;;;;;12.60;40.37;99457.98;111051;1247;21951;-72
2024/04/25 09:33:06;;;;;;;4.70;4.30;;;;;;;12.25;39.68;99472.38;111121;1251;23019;-72
2024/04/25 09:35:42;;;;;;;7.20;4.50;;;;;;;11.75;39.61;99471.42;111374;1251;23001;-72
2024/04/25 09:38:11;;;;;;;7.10;4.70;;;;;;;11.45;41.04;99468.55;111360;1251;24293;-71
2024/04/25 09:40:44;;;;;;;7.70;5.50;;;;;;;11.27;41.96;99462.50;111111;1251;22726;-71
2024/04/25 09:43:19;;;;;;;8.20;5.70;;;;;;;11.17;42.82;99455.48;111632;1251;22457;-71
2024/04/25 09:45:49;;;;;;;8.00;6.10;;;;;;;11.55;43.60;99455.19;111038;1251;23722;-71
2024/04/25 09:48:20;;;;;;;11.60;7.30;;;;;;;12.27;43.31;99453.61;111050;1251;22914;-72
2024/04/25 09:50:59;;;;;;;7.20;5.30;;;;;;;12.77;41.40;99444.23;111790;1251;21987;-73
2024/04/25 09:53:55;;;;;;;7.50;5.90;;;;;;;13.31;40.87;99442.34;111547;1251;22937;-72
2024/04/25 09:56:28;;;;;;;5.60;4.90;;;;;;;13.85;38.59;99442.59;111350;1251;23752;-72
2024/04/25 09:59:16;;;;;;;5.60;4.90;;;;;;;14.25;36.87;99442.11;111645;1251;22545;-72
2024/04/25 10:01:47;;;;;;;6.70;4.80;;;;;;;14.71;37.06;99435.42;111293;1251;21958;-72
2024/04/25 10:04:17;;;;;;;12.20;8.30;;;;;;;15.30;36.96;99436.91;111088;1251;23576;-71
2024/04/25 10:06:47;;;;;;;14.10;12.30;;;;;;;15.66;35.75;99438.33;111187;1251;22727;-72
2024/04/25 10:09:17;;;;;;;11.30;9.90;;;;;;;15.80;34.90;99438.04;111654;1251;22387;-72
2024/04/25 10:11:49;;;;;;;9.70;7.60;;;;;;;15.95;34.19;99442.56;111561;1245;21953;-73
2024/04/25 10:14:28;;;;;;;7.00;6.30;;;;;;;15.98;33.62;99445.52;111284;1251;23685;-72
2024/04/25 10:16:57;;;;;;;9.70;8.50;;;;;;;15.86;33.97;99451.23;111296;1251;22426;-72
2024/04/25 10:19:38;;;;;;;15.10;8.60;;;;;;;15.66;35.10;99454.79;111058;1245;23023;-72
2024/04/25 10:22:18;;;;;;;8.60;7.60;;;;;;;15.37;36.21;99457.84;111444;1251;23611;-71
2024/04/25 10:24:47;;;;;;;9.10;8.20;;;;;;;15.04;37.25;99458.80;111263;1251;21966;-72
2024/04/25 10:27:18;;;;;;;10.90;6.80;;;;;;;14.78;37.60;99462.47;111285;1251;22748;-72
2024/04/25 10:30:09;;;;;;;7.80;5.90;;;;;;;14.33;37.84;99470.87;111360;1251;21953;-72
2024/04/25 10:32:38;;;;;;;6.60;5.90;;;;;;;13.85;38.97;99459.75;111428;1239;21956;-72
2024/04/25 10:35:11;;;;;;;6.80;6.20;;;;;;;13.54;39.50;99444.36;111397;1251;21954;-71
2024/04/25 10:37:40;;;;;;;8.10;6.00;;;;;;;13.39;40.68;99435.84;111311;1251;21962;-72
2024/04/25 10:40:14;;;;;;;7.90;7.10;;;;;;;13.51;41.00;99432.46;111020;1251;21950;-72
2024/04/25 10:42:43;;;;;;;8.50;7.70;;;;;;;13.78;38.74;99430.19;111373;1251;21957;-71
2024/04/25 10:45:12;;;;;;;7.00;6.30;;;;;;;14.14;39.29;99431.55;111298;1251;23726;-73
2024/04/25 10:47:42;;;;;;;14.80;8.70;;;;;;;14.59;38.68;99425.45;111627;1247;21953;-73
2024/04/25 10:50:11;;;;;;;7.50;6.80;;;;;;;14.98;38.21;99424.80;111405;1251;21984;-72
2024/04/25 10:52:40;;;;;;;6.90;6.30;;;;;;;15.22;37.35;99419.02;111440;1251;22728;-72
2024/04/25 10:55:09;;;;;;;7.70;6.60;;;;;;;15.41;36.95;99416.08;111359;1251;21957;-73
2024/04/25 10:57:38;;;;;;;12.40;9.20;;;;;;;15.59;37.13;99418.11;111149;1251;22008;-71
2024/04/25 11:00:08;;;;;;;8.80;7.90;;;;;;;15.67;35.82;99418.47;111337;1251;22046;-72
2024/04/25 11:02:38;;;;;;;8.90;8.20;;;;;;;15.64;35.17;99412.80;111441;1251;21994;-73
2024/04/25 11:05:07;;;;;;;8.30;7.60;;;;;;;15.55;34.39;99409.10;111482;1251;22571;-71
2024/04/25 11:07:38;;;;;;;8.40;7.60;;;;;;;15.47;35.09;99403.36;111327;1251;21970;-71
2024/04/25 11:10:11;;;;;;;9.30;8.50;;;;;;;15.27;34.90;99403.89;111342;1251;23070;-72
2024/04/25 11:12:40;;;;;;;9.70;8.30;;;;;;;14.91;35.64;99403.45;111071;1251;23690;-71
2024/04/25 11:15:17;;;;;;;9.80;8.90;;;;;;;14.70;36.45;99401.81;111069;1251;25035;-71
2024/04/25 11:17:47;;;;;;;10.30;9.10;;;;;;;14.76;37.00;99399.26;111031;1251;21991;-70
2024/04/25 11:20:35;;;;;;;9.70;8.70;;;;;;;14.64;36.60;99404.17;111345;1251;21966;-71
2024/04/25 11:23:19;;;;;;;9.80;9.00;;;;;;;14.38;37.03;99403.08;111361;1251;22178;-70
2024/04/25 11:25:48;;;;;;;9.70;8.80;;;;;;;14.23;37.77;99406.08;111329;1251;23030;-71
2024/04/25 11:28:20;;;;;;;9.60;8.70;;;;;;;14.13;37.91;99409.20;111086;1251;21955;-70
2024/04/25 11:30:49;;;;;;;11.80;8.80;;;;;;;13.93;37.94;99406.91;111075;1251;22408;-69
2024/04/25 11:33:27;;;;;;;9.60;8.70;;;;;;;13.61;38.39;99406.70;111410;1251;21960;-70
2024/04/25 11:35:56;;;;;;;9.00;8.20;;;;;;;13.36;38.96;99406.16;111392;1251;22737;-70